createdAt,value
2019-03-24T00:00:10.802Z,6.50
2019-03-24T00:02:37.828Z,6.50
2019-03-24T00:05:05.058Z,6.60
2019-03-24T00:07:31.644Z,6.60
2019-03-24T00:09:58.608Z,6.60
2019-03-24T00:12:26.841Z,6.60
2019-03-24T00:14:53.565Z,6.60
2019-03-24T00:17:22.128Z,6.70
2019-03-24T00:19:48.487Z,6.60
2019-03-24T00:22:15.003Z,6.70
2019-03-24T00:24:41.674Z,6.70
2019-03-24T00:27:08.304Z,6.70
2019-03-24T00:29:34.980Z,6.70
2019-03-24T00:32:01.748Z,6.70
2019-03-24T00:34:28.270Z,6.80
2019-03-24T00:36:54.821Z,6.80
2019-03-24T00:39:21.388Z,6.80
2019-03-24T00:41:48.239Z,6.80
2019-03-24T00:44:14.924Z,6.80
2019-03-24T00:46:42.039Z,6.80
2019-03-24T00:49:08.459Z,6.80
2019-03-24T00:51:34.905Z,6.70
2019-03-24T00:54:01.666Z,6.70
2019-03-24T00:56:28.307Z,6.70
2019-03-24T00:58:54.871Z,6.80
2019-03-24T01:01:22.195Z,6.80
2019-03-24T01:03:48.873Z,6.80
2019-03-24T01:06:16.044Z,6.80
2019-03-24T01:08:42.581Z,6.80
2019-03-24T01:11:09.611Z,6.80
2019-03-24T01:13:37.617Z,6.80
2019-03-24T01:16:05.182Z,6.80
2019-03-24T01:18:31.716Z,6.80
2019-03-24T01:20:58.241Z,6.70
2019-03-24T01:23:25.070Z,6.70
2019-03-24T01:25:52.029Z,6.70
2019-03-24T01:28:18.534Z,6.70
2019-03-24T01:30:45.202Z,6.70
2019-03-24T01:33:11.838Z,6.70
2019-03-24T01:35:38.522Z,6.80
2019-03-24T01:38:05.148Z,6.80
2019-03-24T01:40:33.774Z,6.80
2019-03-24T01:43:00.303Z,6.80
2019-03-24T01:45:27.167Z,6.70
2019-03-24T01:47:53.679Z,6.70
2019-03-24T01:50:20.321Z,6.70
2019-03-24T01:52:48.467Z,6.70
2019-03-24T01:55:15.039Z,6.70
2019-03-24T01:57:42.655Z,6.70
2019-03-24T02:00:09.378Z,6.70
2019-03-24T02:02:35.994Z,6.70
2019-03-24T02:05:05.326Z,6.80
2019-03-24T02:07:33.086Z,6.70
2019-03-24T02:09:59.670Z,6.70
2019-03-24T02:12:26.389Z,6.70
2019-03-24T02:14:54.186Z,6.70
2019-03-24T02:17:20.772Z,6.70
2019-03-24T02:19:47.456Z,6.70
2019-03-24T02:22:14.395Z,6.60
2019-03-24T02:24:41.023Z,6.60
2019-03-24T02:27:07.657Z,6.60
2019-03-24T02:29:36.267Z,6.60
2019-03-24T02:32:02.966Z,6.60
2019-03-24T02:34:29.488Z,6.60
2019-03-24T02:36:55.921Z,6.50
2019-03-24T02:39:22.397Z,6.50
2019-03-24T02:41:48.919Z,6.50
2019-03-24T02:44:15.439Z,6.50
2019-03-24T02:46:42.073Z,6.50
2019-03-24T02:49:10.410Z,6.50
2019-03-24T02:51:37.286Z,6.50
2019-03-24T02:54:04.270Z,6.50
2019-03-24T02:56:30.886Z,6.40
2019-03-24T02:58:57.777Z,6.40
2019-03-24T03:01:24.435Z,6.40
2019-03-24T03:03:51.365Z,6.40
2019-03-24T03:06:17.911Z,6.40
2019-03-24T03:08:44.601Z,6.30
2019-03-24T03:11:11.075Z,6.40
2019-03-24T03:13:37.543Z,6.40
2019-03-24T03:16:04.200Z,6.30
2019-03-24T03:18:30.710Z,6.30
2019-03-24T03:20:57.235Z,6.30
2019-03-24T03:23:23.995Z,6.30
2019-03-24T03:25:50.740Z,6.20
2019-03-24T03:28:17.184Z,6.20
2019-03-24T03:30:43.915Z,6.30
2019-03-24T03:33:10.415Z,6.20
2019-03-24T03:35:36.934Z,6.20
2019-03-24T03:38:03.610Z,6.10
2019-03-24T03:40:30.324Z,6.20
2019-03-24T03:42:56.945Z,6.20
2019-03-24T03:45:27.539Z,6.10
2019-03-24T03:47:56.425Z,6.10
2019-03-24T03:50:23.067Z,6.10
2019-03-24T03:52:50.675Z,6.00
2019-03-24T03:55:17.569Z,5.90
2019-03-24T03:57:45.425Z,6.00
2019-03-24T04:00:12.717Z,5.90
2019-03-24T04:02:39.252Z,5.90
2019-03-24T04:05:06.056Z,6.00
2019-03-24T04:07:32.719Z,5.90
2019-03-24T04:09:59.253Z,5.90
2019-03-24T04:12:25.820Z,5.90
2019-03-24T04:14:52.317Z,5.90
2019-03-24T04:17:39.375Z,5.80
2019-03-24T04:20:06.256Z,5.80
2019-03-24T04:22:32.752Z,5.80
2019-03-24T04:24:59.374Z,5.80
2019-03-24T04:27:25.949Z,5.70
2019-03-24T04:29:52.367Z,5.70
2019-03-24T04:32:18.898Z,5.60
2019-03-24T04:34:45.361Z,5.60
2019-03-24T04:37:11.767Z,5.60
2019-03-24T04:39:38.381Z,5.60
2019-03-24T04:42:04.930Z,5.50
2019-03-24T04:44:31.436Z,5.50
2019-03-24T04:46:57.884Z,5.40
2019-03-24T04:49:24.459Z,5.20
2019-03-24T04:51:50.982Z,5.10
2019-03-24T04:54:17.440Z,5.10
2019-03-24T04:56:43.976Z,5.00
2019-03-24T04:59:10.509Z,5.00
2019-03-24T05:01:37.166Z,4.90
2019-03-24T05:04:03.781Z,4.90
2019-03-24T05:06:31.004Z,4.80
2019-03-24T05:08:58.187Z,4.80
2019-03-24T05:11:25.035Z,4.80
2019-03-24T05:13:53.628Z,4.90
2019-03-24T05:16:20.149Z,4.90
2019-03-24T05:18:47.363Z,4.90
2019-03-24T05:21:13.903Z,4.90
2019-03-24T05:23:40.513Z,5.00
2019-03-24T05:26:07.223Z,5.10
2019-03-24T05:28:33.916Z,5.20
2019-03-24T05:31:02.866Z,5.20
2019-03-24T05:33:29.373Z,5.20
2019-03-24T05:35:55.828Z,5.20
2019-03-24T05:38:22.394Z,5.20
2019-03-24T05:40:48.950Z,5.20
2019-03-24T05:43:16.850Z,5.30
2019-03-24T05:45:43.297Z,5.30
2019-03-24T05:48:09.822Z,5.30
2019-03-24T05:50:36.412Z,5.20
2019-03-24T05:53:03.106Z,5.20
2019-03-24T05:55:29.627Z,5.30
2019-03-24T05:57:56.777Z,5.30
2019-03-24T06:00:25.049Z,5.30
2019-03-24T06:02:51.555Z,5.40
2019-03-24T06:05:19.209Z,5.40
2019-03-24T06:07:45.657Z,5.40
2019-03-24T06:10:12.387Z,5.50
2019-03-24T06:12:38.896Z,5.50
2019-03-24T06:15:08.400Z,5.60
2019-03-24T06:17:35.384Z,5.60
2019-03-24T06:20:04.990Z,5.70
2019-03-24T06:22:31.678Z,5.70
2019-03-24T06:24:58.216Z,5.80
2019-03-24T06:27:24.619Z,5.80
2019-03-24T06:29:51.054Z,5.90
2019-03-24T06:32:17.579Z,6.00
2019-03-24T06:34:44.134Z,6.00
2019-03-24T06:37:10.603Z,6.10
2019-03-24T06:39:37.178Z,6.00
2019-03-24T06:42:04.410Z,6.10
2019-03-24T06:44:31.067Z,6.20
2019-03-24T06:46:57.614Z,6.10
2019-03-24T06:49:24.225Z,6.20
2019-03-24T06:51:51.102Z,6.20
2019-03-24T06:54:17.730Z,6.20
2019-03-24T06:56:44.425Z,6.20
2019-03-24T06:59:11.050Z,6.30
2019-03-24T07:01:37.706Z,6.30
2019-03-24T07:04:04.378Z,6.40
2019-03-24T07:06:30.905Z,6.50
2019-03-24T07:08:57.472Z,6.70
2019-03-24T07:11:24.042Z,6.80
2019-03-24T07:13:50.688Z,6.80
2019-03-24T07:16:18.537Z,6.80
2019-03-24T07:18:45.406Z,6.70
2019-03-24T07:21:11.953Z,6.70
2019-03-24T07:23:38.385Z,6.80
2019-03-24T07:26:06.018Z,6.80
2019-03-24T07:28:33.123Z,6.90
2019-03-24T07:30:59.635Z,6.90
2019-03-24T07:33:27.543Z,7.00
2019-03-24T07:35:54.114Z,7.10
2019-03-24T07:38:20.696Z,7.20
2019-03-24T07:40:47.777Z,7.10
2019-03-24T07:43:14.184Z,7.00
2019-03-24T07:45:41.119Z,7.00
2019-03-24T07:48:18.287Z,7.10
2019-03-24T07:50:36.014Z,7.30
2019-03-24T07:53:02.693Z,7.40
2019-03-24T07:55:29.113Z,7.30
2019-03-24T07:57:55.638Z,7.40
2019-03-24T08:00:33.858Z,7.50
2019-03-24T08:03:00.480Z,7.50
2019-03-24T08:05:27.090Z,7.40
2019-03-24T08:07:53.654Z,7.50
2019-03-24T08:10:21.283Z,7.60
2019-03-24T08:12:47.933Z,7.80
2019-03-24T08:15:15.346Z,7.80
2019-03-24T08:17:41.898Z,7.90
2019-03-24T08:20:08.719Z,7.90
2019-03-24T08:22:35.558Z,7.90
2019-03-24T08:25:02.378Z,7.80
2019-03-24T08:27:30.045Z,7.90
2019-03-24T08:29:56.709Z,8.00
2019-03-24T08:32:25.199Z,7.90
2019-03-24T08:34:51.468Z,7.90
2019-03-24T08:37:18.240Z,7.90
2019-03-24T08:39:44.913Z,7.90
2019-03-24T08:42:11.635Z,7.90
2019-03-24T08:44:38.201Z,8.10
2019-03-24T08:47:05.268Z,8.30
2019-03-24T08:49:32.227Z,8.40
2019-03-24T08:51:58.784Z,8.70
2019-03-24T08:54:25.467Z,8.60
2019-03-24T08:56:52.296Z,8.60
2019-03-24T08:59:18.798Z,8.60
2019-03-24T09:01:45.407Z,8.50
2019-03-24T09:04:13.006Z,8.60
2019-03-24T09:06:39.796Z,8.90
2019-03-24T09:09:06.474Z,9.00
2019-03-24T09:11:35.125Z,9.10
2019-03-24T09:14:02.257Z,9.20
2019-03-24T09:16:28.955Z,9.30
2019-03-24T09:18:55.550Z,9.10
2019-03-24T09:21:22.266Z,9.30
2019-03-24T09:23:51.027Z,9.30
2019-03-24T09:26:19.415Z,9.40
2019-03-24T09:28:46.079Z,9.60
2019-03-24T09:31:12.487Z,9.50
2019-03-24T09:33:39.381Z,9.60
2019-03-24T09:36:06.009Z,9.40
2019-03-24T09:38:32.647Z,9.60
2019-03-24T09:40:59.664Z,9.60
2019-03-24T09:43:26.161Z,9.70
2019-03-24T09:45:52.614Z,9.50
2019-03-24T09:48:19.495Z,9.50
2019-03-24T09:50:46.035Z,9.70
2019-03-24T09:53:12.663Z,9.60
2019-03-24T09:55:39.622Z,9.50
2019-03-24T09:58:06.307Z,9.90
2019-03-24T10:00:32.960Z,9.80
2019-03-24T10:03:00.962Z,9.90
2019-03-24T10:05:28.879Z,10.00
2019-03-24T10:07:57.521Z,10.00
2019-03-24T10:10:24.175Z,9.80
2019-03-24T10:12:50.795Z,9.90
2019-03-24T10:15:17.423Z,10.10
2019-03-24T10:17:44.299Z,10.20
2019-03-24T10:20:11.363Z,10.10
2019-03-24T10:22:38.037Z,10.10
2019-03-24T10:25:07.079Z,10.10
2019-03-24T10:27:53.489Z,10.20
2019-03-24T10:30:20.192Z,10.00
2019-03-24T10:32:47.815Z,10.10
2019-03-24T10:35:17.341Z,10.00
2019-03-24T10:37:43.963Z,10.10
2019-03-24T10:40:13.269Z,10.40
2019-03-24T10:42:39.966Z,10.60
2019-03-24T10:45:07.564Z,10.50
2019-03-24T10:47:34.916Z,10.60
2019-03-24T10:50:01.916Z,10.60
2019-03-24T10:52:28.754Z,10.20
2019-03-24T10:54:55.383Z,10.30
2019-03-24T10:57:23.041Z,10.30
2019-03-24T10:59:49.471Z,10.40
2019-03-24T11:02:16.198Z,10.60
2019-03-24T11:04:43.438Z,10.80
2019-03-24T11:07:10.409Z,10.50
2019-03-24T11:09:36.943Z,10.50
2019-03-24T11:12:03.566Z,10.60
2019-03-24T11:14:30.198Z,10.80
2019-03-24T11:16:56.763Z,10.80
2019-03-24T11:19:23.604Z,10.70
2019-03-24T11:21:50.206Z,10.60
2019-03-24T11:24:17.882Z,10.60
2019-03-24T11:26:44.366Z,10.60
2019-03-24T11:29:11.225Z,10.60
2019-03-24T11:31:37.875Z,10.60
2019-03-24T11:34:04.488Z,10.90
2019-03-24T11:36:31.696Z,11.10
2019-03-24T11:38:59.140Z,11.00
2019-03-24T11:41:26.656Z,11.10
2019-03-24T11:43:53.200Z,11.30
2019-03-24T11:46:19.754Z,11.10
2019-03-24T11:48:47.134Z,11.60
2019-03-24T11:51:14.042Z,11.70
2019-03-24T11:53:43.893Z,12.00
2019-03-24T11:56:10.888Z,11.50
2019-03-24T11:58:38.729Z,11.30
2019-03-24T12:01:05.369Z,11.30
2019-03-24T12:03:31.787Z,12.20
2019-03-24T12:05:58.907Z,12.50
2019-03-24T12:08:25.690Z,12.20
2019-03-24T12:10:52.212Z,11.80
2019-03-24T12:13:19.209Z,11.50
2019-03-24T12:15:45.802Z,11.40
2019-03-24T12:18:14.152Z,11.20
2019-03-24T12:20:40.712Z,11.20
2019-03-24T12:23:07.502Z,11.50
2019-03-24T12:25:34.138Z,11.20
2019-03-24T12:28:01.302Z,11.30
2019-03-24T12:30:28.408Z,11.30
2019-03-24T12:32:55.363Z,11.40
2019-03-24T12:35:21.896Z,11.20
2019-03-24T12:37:48.323Z,11.50
2019-03-24T12:40:16.267Z,11.80
2019-03-24T12:42:43.489Z,11.70
2019-03-24T12:45:11.705Z,11.50
2019-03-24T12:47:39.854Z,12.00
2019-03-24T12:50:09.847Z,12.40
2019-03-24T12:52:36.109Z,12.60
2019-03-24T12:55:04.140Z,12.50
2019-03-24T12:57:30.769Z,12.50
2019-03-24T12:59:57.804Z,11.90
2019-03-24T13:02:25.938Z,11.80
2019-03-24T13:04:52.570Z,11.80
2019-03-24T13:07:19.241Z,11.80
2019-03-24T13:09:45.934Z,11.70
2019-03-24T13:12:12.558Z,11.60
2019-03-24T13:14:39.202Z,11.50
2019-03-24T13:17:05.771Z,11.50
2019-03-24T13:19:32.325Z,11.60
2019-03-24T13:21:59.439Z,11.60
2019-03-24T13:24:27.574Z,11.90
2019-03-24T13:26:54.111Z,12.10
2019-03-24T13:29:21.290Z,11.90
2019-03-24T13:31:48.883Z,12.10
2019-03-24T13:34:15.510Z,12.10
2019-03-24T13:36:42.739Z,12.20
2019-03-24T13:39:09.765Z,12.30
2019-03-24T13:41:36.517Z,12.10
2019-03-24T13:44:03.176Z,11.90
2019-03-24T13:46:29.827Z,11.60
2019-03-24T13:48:56.475Z,11.50
2019-03-24T13:51:23.158Z,11.50
2019-03-24T13:53:50.390Z,11.40
2019-03-24T13:56:17.300Z,11.40
2019-03-24T13:58:45.710Z,11.30
2019-03-24T14:01:13.309Z,11.20
2019-03-24T14:03:40.996Z,11.00
2019-03-24T14:06:07.950Z,11.10
2019-03-24T14:08:34.580Z,11.00
2019-03-24T14:11:02.965Z,11.00
2019-03-24T14:13:29.909Z,11.00
2019-03-24T14:15:56.428Z,11.00
2019-03-24T14:18:23.009Z,11.00
2019-03-24T14:20:49.727Z,10.90
2019-03-24T14:23:16.527Z,10.80
2019-03-24T14:25:43.153Z,10.80
2019-03-24T14:28:10.043Z,10.70
2019-03-24T14:30:40.280Z,10.60
2019-03-24T14:33:06.939Z,10.70
2019-03-24T14:35:33.794Z,10.80
2019-03-24T14:38:01.174Z,10.90
2019-03-24T14:40:27.666Z,10.70
2019-03-24T14:42:54.678Z,10.60
2019-03-24T14:45:21.277Z,10.70
2019-03-24T14:47:47.923Z,10.70
2019-03-24T14:50:15.171Z,10.70
2019-03-24T14:52:41.838Z,10.70
2019-03-24T14:55:08.538Z,10.60
2019-03-24T14:57:35.171Z,10.50
2019-03-24T15:00:02.614Z,10.40
2019-03-24T15:02:29.123Z,10.40
2019-03-24T15:04:55.868Z,10.40
2019-03-24T15:07:22.353Z,10.30
2019-03-24T15:09:50.992Z,10.20
2019-03-24T15:12:17.591Z,10.20
2019-03-24T15:14:44.153Z,10.20
2019-03-24T15:17:11.201Z,10.20
2019-03-24T15:19:37.843Z,10.20
2019-03-24T15:22:04.416Z,10.10
2019-03-24T15:24:31.182Z,10.10
2019-03-24T15:26:57.929Z,10.00
2019-03-24T15:29:24.498Z,10.00
2019-03-24T15:31:52.606Z,10.00
2019-03-24T15:34:19.157Z,9.80
2019-03-24T15:36:45.683Z,9.60
2019-03-24T15:39:12.278Z,9.60
2019-03-24T15:41:38.962Z,9.70
2019-03-24T15:44:05.411Z,9.70
2019-03-24T15:46:32.128Z,9.70
2019-03-24T15:48:59.314Z,9.70
2019-03-24T15:51:25.768Z,9.70
2019-03-24T15:53:52.214Z,9.60
2019-03-24T15:56:18.715Z,9.50
2019-03-24T15:58:45.693Z,9.40
2019-03-24T16:01:12.221Z,9.40
2019-03-24T16:03:39.399Z,9.30
2019-03-24T16:06:06.119Z,9.30
2019-03-24T16:08:32.781Z,9.30
2019-03-24T16:10:59.417Z,9.30
2019-03-24T16:13:26.038Z,9.30
2019-03-24T16:15:52.699Z,9.20
2019-03-24T16:18:19.210Z,9.10
2019-03-24T16:20:45.733Z,9.00
2019-03-24T16:23:12.367Z,9.00
2019-03-24T16:25:39.004Z,9.00
2019-03-24T16:28:05.686Z,9.00
2019-03-24T16:30:32.330Z,9.00
2019-03-24T16:32:58.992Z,9.00
2019-03-24T16:35:26.178Z,8.90
2019-03-24T16:37:52.611Z,9.00
2019-03-24T16:40:19.071Z,9.00
2019-03-24T16:42:45.699Z,9.00
2019-03-24T16:45:12.455Z,8.90
2019-03-24T16:47:39.117Z,8.80
2019-03-24T16:50:06.143Z,8.80
2019-03-24T16:52:32.803Z,8.70
2019-03-24T16:54:59.391Z,8.70
2019-03-24T16:57:25.908Z,8.70
2019-03-24T16:59:52.530Z,8.60
2019-03-24T17:02:19.221Z,8.60
2019-03-24T17:04:45.827Z,8.60
2019-03-24T17:07:12.343Z,8.60
2019-03-24T17:09:39.060Z,8.50
2019-03-24T17:12:06.111Z,8.50
2019-03-24T17:14:32.659Z,8.50
2019-03-24T17:16:59.428Z,8.40
2019-03-24T17:19:26.222Z,8.30
2019-03-24T17:21:54.095Z,8.30
2019-03-24T17:24:20.766Z,8.30
2019-03-24T17:26:47.895Z,8.30
2019-03-24T17:29:14.407Z,8.20
2019-03-24T17:31:40.946Z,8.20
2019-03-24T17:34:07.678Z,8.20
2019-03-24T17:36:36.365Z,8.20
2019-03-24T17:39:06.084Z,8.10
2019-03-24T17:41:34.047Z,8.10
2019-03-24T17:44:03.299Z,8.10
2019-03-24T17:46:31.700Z,8.10
2019-03-24T17:48:58.149Z,8.10
2019-03-24T17:51:24.649Z,8.10
2019-03-24T17:53:51.159Z,8.00
2019-03-24T17:56:17.993Z,7.90
2019-03-24T17:58:45.970Z,7.90
2019-03-24T18:01:12.634Z,7.90
2019-03-24T18:03:41.088Z,7.90
2019-03-24T18:06:08.161Z,7.90
2019-03-24T18:08:34.705Z,7.90
2019-03-24T18:11:02.722Z,7.90
2019-03-24T18:13:29.333Z,7.90
2019-03-24T18:15:57.672Z,7.80
2019-03-24T18:18:26.623Z,7.90
2019-03-24T18:20:53.351Z,7.80
2019-03-24T18:23:20.160Z,7.80
2019-03-24T18:25:48.086Z,7.90
2019-03-24T18:28:15.579Z,7.80
2019-03-24T18:30:42.081Z,7.80
2019-03-24T18:33:08.627Z,7.80
2019-03-24T18:35:36.505Z,7.80
2019-03-24T18:38:04.592Z,7.90
2019-03-24T18:40:32.383Z,7.90
2019-03-24T18:42:59.007Z,7.90
2019-03-24T18:45:25.835Z,7.80
2019-03-24T18:47:52.462Z,7.80
2019-03-24T18:50:19.069Z,7.80
2019-03-24T18:52:46.175Z,7.80
2019-03-24T18:55:13.954Z,7.80
2019-03-24T18:57:40.464Z,7.80
2019-03-24T19:00:08.785Z,7.80
2019-03-24T19:02:37.338Z,7.80
2019-03-24T19:05:06.318Z,7.70
2019-03-24T19:07:34.838Z,7.60
2019-03-24T19:10:03.244Z,7.60
2019-03-24T19:12:29.871Z,7.60
2019-03-24T19:14:58.389Z,7.60
2019-03-24T19:17:24.940Z,7.60
2019-03-24T19:19:51.701Z,7.60
2019-03-24T19:22:18.538Z,7.50
2019-03-24T19:24:47.138Z,7.50
2019-03-24T19:27:14.508Z,7.50
2019-03-24T19:29:41.661Z,7.50
2019-03-24T19:32:10.187Z,7.50
2019-03-24T19:34:36.759Z,7.50
2019-03-24T19:37:03.409Z,7.50
2019-03-24T19:39:30.286Z,7.50
2019-03-24T19:41:57.289Z,7.40
2019-03-24T19:44:23.788Z,7.40
2019-03-24T19:46:50.361Z,7.40
2019-03-24T19:49:17.167Z,7.40
2019-03-24T19:51:44.197Z,7.40
2019-03-24T19:54:10.794Z,7.40
2019-03-24T19:56:37.298Z,7.40
2019-03-24T19:59:04.194Z,7.30
2019-03-24T20:01:30.753Z,7.30
2019-03-24T20:03:57.688Z,7.30
2019-03-24T20:06:26.317Z,7.20
2019-03-24T20:08:52.938Z,7.20
2019-03-24T20:11:19.831Z,7.10
2019-03-24T20:13:46.397Z,7.10
2019-03-24T20:16:12.938Z,7.10
2019-03-24T20:18:39.484Z,7.10
2019-03-24T20:21:06.084Z,7.10
2019-03-24T20:23:34.585Z,7.00
2019-03-24T20:26:01.727Z,7.00
2019-03-24T20:28:28.409Z,6.90
2019-03-24T20:30:54.865Z,6.90
2019-03-24T20:33:21.588Z,6.90
2019-03-24T20:35:48.237Z,6.90
2019-03-24T20:38:15.195Z,6.90
2019-03-24T20:40:41.718Z,6.90
2019-03-24T20:43:08.316Z,6.80
2019-03-24T20:45:34.850Z,6.80
2019-03-24T20:48:01.545Z,6.80
2019-03-24T20:50:28.163Z,6.80
2019-03-24T20:53:03.626Z,6.80
2019-03-24T20:55:22.841Z,6.80
2019-03-24T20:57:51.523Z,6.80
2019-03-24T21:00:21.832Z,6.70
2019-03-24T21:02:48.380Z,6.70
2019-03-24T21:05:15.511Z,6.70
2019-03-24T21:07:42.117Z,6.70
2019-03-24T21:10:09.334Z,6.60
2019-03-24T21:12:37.030Z,6.70
2019-03-24T21:15:07.249Z,6.60
2019-03-24T21:17:33.979Z,6.50
2019-03-24T21:20:00.532Z,6.50
2019-03-24T21:22:27.129Z,6.40
2019-03-24T21:24:53.806Z,6.50
2019-03-24T21:27:20.330Z,6.40
2019-03-24T21:29:46.761Z,6.40
2019-03-24T21:32:13.801Z,6.30
2019-03-24T21:34:40.336Z,6.30
2019-03-24T21:37:06.886Z,6.20
2019-03-24T21:39:33.892Z,6.10
2019-03-24T21:42:00.844Z,6.10
2019-03-24T21:44:27.364Z,6.00
2019-03-24T21:46:53.987Z,5.80
2019-03-24T21:49:20.691Z,5.80
2019-03-24T21:51:47.211Z,5.80
2019-03-24T21:54:13.823Z,5.60
2019-03-24T21:56:40.445Z,5.50
2019-03-24T21:59:07.251Z,5.60
2019-03-24T22:01:33.810Z,5.60
2019-03-24T22:04:00.429Z,5.60
2019-03-24T22:06:27.045Z,5.80
2019-03-24T22:08:53.728Z,5.70
2019-03-24T22:11:20.633Z,5.70
2019-03-24T22:13:47.476Z,5.30
2019-03-24T22:16:14.632Z,5.10
2019-03-24T22:18:41.144Z,4.90
2019-03-24T22:21:07.790Z,4.70
2019-03-24T22:23:34.461Z,4.60
2019-03-24T22:26:01.462Z,4.50
2019-03-24T22:28:27.962Z,4.30
2019-03-24T22:30:54.643Z,4.30
2019-03-24T22:33:21.267Z,4.20
2019-03-24T22:35:47.794Z,4.00
2019-03-24T22:38:14.371Z,3.90
2019-03-24T22:40:40.807Z,3.80
2019-03-24T22:43:07.621Z,3.90
2019-03-24T22:45:34.420Z,3.80
2019-03-24T22:48:01.074Z,3.70
2019-03-24T22:50:27.695Z,3.70
2019-03-24T22:52:54.257Z,3.60
2019-03-24T22:55:20.887Z,3.50
2019-03-24T22:57:47.406Z,3.50
2019-03-24T23:00:35.828Z,3.40
2019-03-24T23:03:02.542Z,3.40
2019-03-24T23:05:29.168Z,3.40
2019-03-24T23:07:55.814Z,3.50
2019-03-24T23:10:22.293Z,3.50
2019-03-24T23:12:48.700Z,3.30
2019-03-24T23:15:15.679Z,3.20
2019-03-24T23:17:42.471Z,3.20
2019-03-24T23:20:09.393Z,3.20
2019-03-24T23:22:36.113Z,3.10
2019-03-24T23:25:05.289Z,3.10
2019-03-24T23:27:31.901Z,3.10
2019-03-24T23:29:58.411Z,3.00
2019-03-24T23:32:24.985Z,3.00
2019-03-24T23:34:51.481Z,2.80
2019-03-24T23:37:18.133Z,2.80
2019-03-24T23:39:45.085Z,2.90
2019-03-24T23:42:11.483Z,2.90
2019-03-24T23:44:38.070Z,2.80
2019-03-24T23:47:04.681Z,2.70
2019-03-24T23:49:31.332Z,2.60
2019-03-24T23:51:58.394Z,2.50
2019-03-24T23:54:27.314Z,2.60
2019-03-24T23:56:53.444Z,2.50
2019-03-24T23:59:20.398Z,2.30
